sensor_id;sensor_type;location;lat;lon;timestamp;P1;durP1;ratioP1;P2;durP2;ratioP2
53875;SDS011;39789;53.216;5.624;2023-10-31T00:01:17;10.43;;;5.95;;
53875;SDS011;39789;53.216;5.624;2023-10-31T00:03:42;12.40;;;5.60;;
53875;SDS011;39789;53.216;5.624;2023-10-31T00:06:09;10.70;;;5.32;;
53875;SDS011;39789;53.216;5.624;2023-10-31T00:08:35;12.63;;;4.68;;
53875;SDS011;39789;53.216;5.624;2023-10-31T00:11:00;11.35;;;4.75;;
53875;SDS011;39789;53.216;5.624;2023-10-31T00:13:26;10.65;;;4.43;;
53875;SDS011;39789;53.216;5.624;2023-10-31T00:15:52;10.65;;;4.10;;
53875;SDS011;39789;53.216;5.624;2023-10-31T00:18:17;10.07;;;3.42;;
53875;SDS011;39789;53.216;5.624;2023-10-31T00:20:43;14.27;;;3.05;;
53875;SDS011;39789;53.216;5.624;2023-10-31T00:23:09;18.50;;;4.50;;
53875;SDS011;39789;53.216;5.624;2023-10-31T00:25:34;16.20;;;3.53;;
53875;SDS011;39789;53.216;5.624;2023-10-31T00:28:00;14.63;;;3.72;;
53875;SDS011;39789;53.216;5.624;2023-10-31T00:30:25;13.68;;;3.50;;
53875;SDS011;39789;53.216;5.624;2023-10-31T00:32:51;9.85;;;3.22;;
53875;SDS011;39789;53.216;5.624;2023-10-31T00:35:16;8.63;;;3.17;;
53875;SDS011;39789;53.216;5.624;2023-10-31T00:37:42;9.98;;;3.15;;
53875;SDS011;39789;53.216;5.624;2023-10-31T00:40:08;11.82;;;3.33;;
53875;SDS011;39789;53.216;5.624;2023-10-31T00:42:37;16.92;;;3.45;;
53875;SDS011;39789;53.216;5.624;2023-10-31T00:45:04;12.30;;;3.30;;
53875;SDS011;39789;53.216;5.624;2023-10-31T00:47:30;14.25;;;3.53;;
53875;SDS011;39789;53.216;5.624;2023-10-31T00:49:55;10.60;;;2.88;;
53875;SDS011;39789;53.216;5.624;2023-10-31T00:52:21;18.90;;;3.65;;
53875;SDS011;39789;53.216;5.624;2023-10-31T00:54:46;14.18;;;3.97;;
53875;SDS011;39789;53.216;5.624;2023-10-31T00:57:12;11.32;;;3.33;;
53875;SDS011;39789;53.216;5.624;2023-10-31T00:59:38;11.35;;;3.97;;
53875;SDS011;39789;53.216;5.624;2023-10-31T01:02:04;15.00;;;3.75;;
53875;SDS011;39789;53.216;5.624;2023-10-31T01:04:30;17.38;;;3.67;;
53875;SDS011;39789;53.216;5.624;2023-10-31T01:06:56;13.73;;;3.50;;
53875;SDS011;39789;53.216;5.624;2023-10-31T01:09:22;11.75;;;3.53;;
53875;SDS011;39789;53.216;5.624;2023-10-31T01:11:48;22.60;;;4.40;;
53875;SDS011;39789;53.216;5.624;2023-10-31T01:14:13;15.82;;;4.07;;
53875;SDS011;39789;53.216;5.624;2023-10-31T01:16:39;11.05;;;3.55;;
53875;SDS011;39789;53.216;5.624;2023-10-31T01:19:05;15.77;;;3.67;;
53875;SDS011;39789;53.216;5.624;2023-10-31T01:21:32;14.43;;;4.15;;
53875;SDS011;39789;53.216;5.624;2023-10-31T01:23:58;12.23;;;3.50;;
53875;SDS011;39789;53.216;5.624;2023-10-31T01:26:24;16.23;;;4.10;;
53875;SDS011;39789;53.216;5.624;2023-10-31T01:28:50;16.88;;;4.03;;
53875;SDS011;39789;53.216;5.624;2023-10-31T01:31:16;12.15;;;3.40;;
53875;SDS011;39789;53.216;5.624;2023-10-31T01:33:42;10.05;;;3.55;;
53875;SDS011;39789;53.216;5.624;2023-10-31T01:36:08;14.90;;;3.42;;
53875;SDS011;39789;53.216;5.624;2023-10-31T01:38:35;14.68;;;3.92;;
53875;SDS011;39789;53.216;5.624;2023-10-31T01:41:01;13.25;;;4.00;;
53875;SDS011;39789;53.216;5.624;2023-10-31T01:43:34;12.75;;;3.85;;
53875;SDS011;39789;53.216;5.624;2023-10-31T01:46:01;13.77;;;4.03;;
53875;SDS011;39789;53.216;5.624;2023-10-31T01:48:27;13.75;;;4.30;;
53875;SDS011;39789;53.216;5.624;2023-10-31T01:50:55;13.00;;;3.90;;
53875;SDS011;39789;53.216;5.624;2023-10-31T01:53:21;14.50;;;4.95;;
53875;SDS011;39789;53.216;5.624;2023-10-31T01:55:49;14.30;;;4.25;;
53875;SDS011;39789;53.216;5.624;2023-10-31T01:58:15;14.63;;;4.60;;
53875;SDS011;39789;53.216;5.624;2023-10-31T02:00:41;16.13;;;4.55;;
53875;SDS011;39789;53.216;5.624;2023-10-31T02:03:08;17.67;;;4.65;;
53875;SDS011;39789;53.216;5.624;2023-10-31T02:05:34;15.35;;;4.45;;
53875;SDS011;39789;53.216;5.624;2023-10-31T02:08:03;16.65;;;4.28;;
53875;SDS011;39789;53.216;5.624;2023-10-31T02:10:30;16.85;;;4.75;;
53875;SDS011;39789;53.216;5.624;2023-10-31T02:12:56;15.05;;;4.60;;
53875;SDS011;39789;53.216;5.624;2023-10-31T02:15:21;11.27;;;3.92;;
53875;SDS011;39789;53.216;5.624;2023-10-31T02:17:47;15.52;;;5.18;;
53875;SDS011;39789;53.216;5.624;2023-10-31T02:20:12;19.60;;;5.13;;
53875;SDS011;39789;53.216;5.624;2023-10-31T02:22:38;14.15;;;4.63;;
53875;SDS011;39789;53.216;5.624;2023-10-31T02:25:15;17.08;;;5.28;;
53875;SDS011;39789;53.216;5.624;2023-10-31T02:27:41;11.40;;;4.93;;
53875;SDS011;39789;53.216;5.624;2023-10-31T02:30:07;18.00;;;4.80;;
53875;SDS011;39789;53.216;5.624;2023-10-31T02:32:33;9.68;;;3.72;;
53875;SDS011;39789;53.216;5.624;2023-10-31T02:34:59;14.38;;;4.72;;
53875;SDS011;39789;53.216;5.624;2023-10-31T02:37:24;13.05;;;4.40;;
53875;SDS011;39789;53.216;5.624;2023-10-31T02:39:50;13.23;;;4.28;;
53875;SDS011;39789;53.216;5.624;2023-10-31T02:42:15;13.27;;;4.55;;
53875;SDS011;39789;53.216;5.624;2023-10-31T02:44:41;11.20;;;3.97;;
53875;SDS011;39789;53.216;5.624;2023-10-31T02:47:09;13.93;;;3.55;;
53875;SDS011;39789;53.216;5.624;2023-10-31T02:49:35;14.15;;;3.20;;
53875;SDS011;39789;53.216;5.624;2023-10-31T02:52:01;12.55;;;3.40;;
53875;SDS011;39789;53.216;5.624;2023-10-31T02:54:26;11.18;;;3.63;;
53875;SDS011;39789;53.216;5.624;2023-10-31T02:56:52;12.02;;;3.72;;
53875;SDS011;39789;53.216;5.624;2023-10-31T02:59:18;12.43;;;3.38;;
53875;SDS011;39789;53.216;5.624;2023-10-31T03:01:43;14.27;;;3.80;;
53875;SDS011;39789;53.216;5.624;2023-10-31T03:04:09;17.58;;;4.38;;
53875;SDS011;39789;53.216;5.624;2023-10-31T03:06:34;10.73;;;2.95;;
53875;SDS011;39789;53.216;5.624;2023-10-31T03:09:00;13.18;;;3.05;;
53875;SDS011;39789;53.216;5.624;2023-10-31T03:11:26;14.20;;;3.47;;
53875;SDS011;39789;53.216;5.624;2023-10-31T03:13:52;8.75;;;3.17;;
53875;SDS011;39789;53.216;5.624;2023-10-31T03:16:18;8.85;;;2.85;;
53875;SDS011;39789;53.216;5.624;2023-10-31T03:18:45;9.32;;;2.90;;
53875;SDS011;39789;53.216;5.624;2023-10-31T03:21:11;10.20;;;3.13;;
53875;SDS011;39789;53.216;5.624;2023-10-31T03:23:37;8.60;;;2.60;;
53875;SDS011;39789;53.216;5.624;2023-10-31T03:26:02;8.40;;;2.58;;
53875;SDS011;39789;53.216;5.624;2023-10-31T03:28:28;6.38;;;1.92;;
53875;SDS011;39789;53.216;5.624;2023-10-31T03:30:54;6.40;;;1.83;;
53875;SDS011;39789;53.216;5.624;2023-10-31T03:33:19;6.38;;;1.55;;
53875;SDS011;39789;53.216;5.624;2023-10-31T03:35:45;4.88;;;1.73;;
53875;SDS011;39789;53.216;5.624;2023-10-31T03:38:11;4.45;;;1.60;;
53875;SDS011;39789;53.216;5.624;2023-10-31T03:40:37;8.52;;;2.03;;
53875;SDS011;39789;53.216;5.624;2023-10-31T03:43:02;6.80;;;2.20;;
53875;SDS011;39789;53.216;5.624;2023-10-31T03:45:28;8.93;;;2.65;;
53875;SDS011;39789;53.216;5.624;2023-10-31T03:47:54;7.25;;;2.10;;
53875;SDS011;39789;53.216;5.624;2023-10-31T03:50:20;6.75;;;2.75;;
53875;SDS011;39789;53.216;5.624;2023-10-31T03:52:45;6.85;;;2.00;;
53875;SDS011;39789;53.216;5.624;2023-10-31T03:55:14;5.40;;;2.55;;
53875;SDS011;39789;53.216;5.624;2023-10-31T03:57:39;7.68;;;2.03;;
53875;SDS011;39789;53.216;5.624;2023-10-31T04:00:05;5.80;;;1.80;;
53875;SDS011;39789;53.216;5.624;2023-10-31T04:02:32;5.32;;;1.50;;
53875;SDS011;39789;53.216;5.624;2023-10-31T04:04:58;3.05;;;1.55;;
53875;SDS011;39789;53.216;5.624;2023-10-31T04:07:27;6.03;;;1.70;;
53875;SDS011;39789;53.216;5.624;2023-10-31T04:09:52;8.38;;;1.80;;
53875;SDS011;39789;53.216;5.624;2023-10-31T04:12:19;5.68;;;1.67;;
53875;SDS011;39789;53.216;5.624;2023-10-31T04:14:45;6.55;;;1.90;;
53875;SDS011;39789;53.216;5.624;2023-10-31T04:17:10;7.53;;;2.03;;
53875;SDS011;39789;53.216;5.624;2023-10-31T04:19:36;7.10;;;2.20;;
53875;SDS011;39789;53.216;5.624;2023-10-31T04:22:02;9.90;;;2.33;;
53875;SDS011;39789;53.216;5.624;2023-10-31T04:24:28;5.88;;;2.03;;
53875;SDS011;39789;53.216;5.624;2023-10-31T04:26:53;4.50;;;1.90;;
53875;SDS011;39789;53.216;5.624;2023-10-31T04:29:22;12.95;;;2.38;;
53875;SDS011;39789;53.216;5.624;2023-10-31T04:31:48;5.80;;;2.15;;
53875;SDS011;39789;53.216;5.624;2023-10-31T04:34:14;7.40;;;2.33;;
53875;SDS011;39789;53.216;5.624;2023-10-31T04:36:41;7.53;;;1.90;;
53875;SDS011;39789;53.216;5.624;2023-10-31T04:39:06;9.90;;;2.53;;
53875;SDS011;39789;53.216;5.624;2023-10-31T04:41:32;9.20;;;2.45;;
53875;SDS011;39789;53.216;5.624;2023-10-31T04:43:58;10.43;;;2.95;;
53875;SDS011;39789;53.216;5.624;2023-10-31T04:46:26;7.55;;;2.30;;
53875;SDS011;39789;53.216;5.624;2023-10-31T04:48:52;9.15;;;2.20;;
53875;SDS011;39789;53.216;5.624;2023-10-31T04:51:18;7.50;;;2.58;;
53875;SDS011;39789;53.216;5.624;2023-10-31T04:53:44;9.32;;;2.35;;
53875;SDS011;39789;53.216;5.624;2023-10-31T04:56:12;7.60;;;2.00;;
53875;SDS011;39789;53.216;5.624;2023-10-31T04:58:41;8.48;;;1.90;;
53875;SDS011;39789;53.216;5.624;2023-10-31T05:01:16;10.27;;;2.20;;
53875;SDS011;39789;53.216;5.624;2023-10-31T05:03:42;5.72;;;1.90;;
53875;SDS011;39789;53.216;5.624;2023-10-31T05:06:08;9.80;;;2.25;;
53875;SDS011;39789;53.216;5.624;2023-10-31T05:08:37;8.68;;;2.08;;
53875;SDS011;39789;53.216;5.624;2023-10-31T05:11:02;8.13;;;2.40;;
53875;SDS011;39789;53.216;5.624;2023-10-31T05:13:28;6.93;;;2.58;;
53875;SDS011;39789;53.216;5.624;2023-10-31T05:15:55;8.13;;;2.00;;
53875;SDS011;39789;53.216;5.624;2023-10-31T05:18:23;3.70;;;2.25;;
53875;SDS011;39789;53.216;5.624;2023-10-31T05:20:49;8.50;;;2.10;;
53875;SDS011;39789;53.216;5.624;2023-10-31T05:23:14;6.60;;;2.30;;
53875;SDS011;39789;53.216;5.624;2023-10-31T05:25:40;6.15;;;2.10;;
53875;SDS011;39789;53.216;5.624;2023-10-31T05:28:06;6.65;;;2.47;;
53875;SDS011;39789;53.216;5.624;2023-10-31T05:30:31;6.88;;;2.30;;
53875;SDS011;39789;53.216;5.624;2023-10-31T05:32:57;8.23;;;2.20;;
53875;SDS011;39789;53.216;5.624;2023-10-31T05:35:22;7.90;;;2.63;;
53875;SDS011;39789;53.216;5.624;2023-10-31T05:37:48;5.07;;;2.17;;
53875;SDS011;39789;53.216;5.624;2023-10-31T05:40:14;9.23;;;2.20;;
53875;SDS011;39789;53.216;5.624;2023-10-31T05:42:41;5.90;;;1.98;;
53875;SDS011;39789;53.216;5.624;2023-10-31T05:45:07;11.50;;;2.15;;
53875;SDS011;39789;53.216;5.624;2023-10-31T05:47:33;10.73;;;2.35;;
53875;SDS011;39789;53.216;5.624;2023-10-31T05:49:59;4.68;;;1.70;;
53875;SDS011;39789;53.216;5.624;2023-10-31T05:52:28;7.00;;;2.30;;
53875;SDS011;39789;53.216;5.624;2023-10-31T05:54:54;6.25;;;1.60;;
53875;SDS011;39789;53.216;5.624;2023-10-31T05:57:21;10.30;;;1.92;;
53875;SDS011;39789;53.216;5.624;2023-10-31T05:59:46;8.52;;;1.63;;
53875;SDS011;39789;53.216;5.624;2023-10-31T06:02:13;3.88;;;1.38;;
53875;SDS011;39789;53.216;5.624;2023-10-31T06:04:39;2.55;;;1.30;;
53875;SDS011;39789;53.216;5.624;2023-10-31T06:07:05;3.60;;;1.20;;
53875;SDS011;39789;53.216;5.624;2023-10-31T06:09:31;2.42;;;1.25;;
53875;SDS011;39789;53.216;5.624;2023-10-31T06:11:58;4.35;;;1.20;;
53875;SDS011;39789;53.216;5.624;2023-10-31T06:14:24;4.35;;;1.30;;
53875;SDS011;39789;53.216;5.624;2023-10-31T06:16:50;5.10;;;1.35;;
53875;SDS011;39789;53.216;5.624;2023-10-31T06:19:16;6.47;;;1.45;;
53875;SDS011;39789;53.216;5.624;2023-10-31T06:21:42;4.10;;;1.50;;
53875;SDS011;39789;53.216;5.624;2023-10-31T06:24:08;7.45;;;1.40;;
53875;SDS011;39789;53.216;5.624;2023-10-31T06:26:34;4.82;;;1.25;;
53875;SDS011;39789;53.216;5.624;2023-10-31T06:28:59;6.38;;;1.48;;
53875;SDS011;39789;53.216;5.624;2023-10-31T06:31:28;5.07;;;1.10;;
53875;SDS011;39789;53.216;5.624;2023-10-31T06:33:54;9.75;;;1.67;;
53875;SDS011;39789;53.216;5.624;2023-10-31T06:36:19;2.35;;;1.10;;
53875;SDS011;39789;53.216;5.624;2023-10-31T06:38:48;1.52;;;0.80;;
53875;SDS011;39789;53.216;5.624;2023-10-31T06:41:13;1.80;;;1.00;;
53875;SDS011;39789;53.216;5.624;2023-10-31T06:43:39;2.38;;;0.90;;
53875;SDS011;39789;53.216;5.624;2023-10-31T06:46:07;5.70;;;1.13;;
53875;SDS011;39789;53.216;5.624;2023-10-31T06:48:33;3.85;;;1.10;;
53875;SDS011;39789;53.216;5.624;2023-10-31T06:50:59;3.83;;;1.02;;
53875;SDS011;39789;53.216;5.624;2023-10-31T06:53:24;3.35;;;0.95;;
53875;SDS011;39789;53.216;5.624;2023-10-31T06:55:50;2.70;;;1.10;;
53875;SDS011;39789;53.216;5.624;2023-10-31T06:58:16;1.67;;;0.88;;
53875;SDS011;39789;53.216;5.624;2023-10-31T07:00:41;2.33;;;0.75;;
53875;SDS011;39789;53.216;5.624;2023-10-31T07:03:07;1.25;;;0.77;;
53875;SDS011;39789;53.216;5.624;2023-10-31T07:05:37;5.55;;;1.40;;
53875;SDS011;39789;53.216;5.624;2023-10-31T07:08:05;3.55;;;1.00;;
53875;SDS011;39789;53.216;5.624;2023-10-31T07:10:30;3.13;;;1.05;;
53875;SDS011;39789;53.216;5.624;2023-10-31T07:12:56;4.10;;;1.20;;
53875;SDS011;39789;53.216;5.624;2023-10-31T07:15:23;7.18;;;1.20;;
53875;SDS011;39789;53.216;5.624;2023-10-31T07:17:52;4.50;;;1.50;;
53875;SDS011;39789;53.216;5.624;2023-10-31T07:20:17;6.55;;;1.00;;
53875;SDS011;39789;53.216;5.624;2023-10-31T07:22:43;4.43;;;0.95;;
53875;SDS011;39789;53.216;5.624;2023-10-31T07:25:09;3.83;;;0.93;;
53875;SDS011;39789;53.216;5.624;2023-10-31T07:27:35;3.28;;;0.95;;
53875;SDS011;39789;53.216;5.624;2023-10-31T07:30:02;4.85;;;1.10;;
53875;SDS011;39789;53.216;5.624;2023-10-31T07:32:29;7.07;;;1.20;;
53875;SDS011;39789;53.216;5.624;2023-10-31T07:34:54;4.15;;;1.65;;
53875;SDS011;39789;53.216;5.624;2023-10-31T07:37:20;3.03;;;1.58;;
53875;SDS011;39789;53.216;5.624;2023-10-31T07:39:46;5.70;;;1.33;;
53875;SDS011;39789;53.216;5.624;2023-10-31T07:42:11;3.00;;;1.27;;
53875;SDS011;39789;53.216;5.624;2023-10-31T07:44:37;4.88;;;1.23;;
53875;SDS011;39789;53.216;5.624;2023-10-31T07:47:02;8.45;;;1.40;;
53875;SDS011;39789;53.216;5.624;2023-10-31T07:49:28;2.53;;;1.00;;
53875;SDS011;39789;53.216;5.624;2023-10-31T07:51:54;4.40;;;1.35;;
53875;SDS011;39789;53.216;5.624;2023-10-31T07:54:19;4.63;;;1.25;;
53875;SDS011;39789;53.216;5.624;2023-10-31T07:56:45;3.00;;;1.33;;
53875;SDS011;39789;53.216;5.624;2023-10-31T07:59:11;5.13;;;1.48;;
53875;SDS011;39789;53.216;5.624;2023-10-31T08:01:36;3.08;;;1.40;;
53875;SDS011;39789;53.216;5.624;2023-10-31T08:04:02;5.40;;;1.80;;
53875;SDS011;39789;53.216;5.624;2023-10-31T08:06:28;3.50;;;1.35;;
53875;SDS011;39789;53.216;5.624;2023-10-31T08:08:56;6.30;;;1.50;;
53875;SDS011;39789;53.216;5.624;2023-10-31T08:11:22;8.48;;;2.42;;
53875;SDS011;39789;53.216;5.624;2023-10-31T08:13:47;8.73;;;2.17;;
53875;SDS011;39789;53.216;5.624;2023-10-31T08:16:17;9.70;;;2.38;;
53875;SDS011;39789;53.216;5.624;2023-10-31T08:18:44;10.77;;;2.75;;
53875;SDS011;39789;53.216;5.624;2023-10-31T08:21:11;8.45;;;2.30;;
53875;SDS011;39789;53.216;5.624;2023-10-31T08:23:37;9.85;;;2.70;;
53875;SDS011;39789;53.216;5.624;2023-10-31T08:26:04;12.60;;;2.97;;
53875;SDS011;39789;53.216;5.624;2023-10-31T08:28:30;11.25;;;2.45;;
53875;SDS011;39789;53.216;5.624;2023-10-31T08:30:56;9.10;;;2.67;;
53875;SDS011;39789;53.216;5.624;2023-10-31T08:33:22;10.93;;;2.90;;
53875;SDS011;39789;53.216;5.624;2023-10-31T08:35:48;8.27;;;2.28;;
53875;SDS011;39789;53.216;5.624;2023-10-31T08:38:14;8.65;;;2.85;;
53875;SDS011;39789;53.216;5.624;2023-10-31T08:40:40;9.65;;;2.17;;
53875;SDS011;39789;53.216;5.624;2023-10-31T08:43:06;10.70;;;2.45;;
53875;SDS011;39789;53.216;5.624;2023-10-31T08:45:32;6.90;;;2.05;;
53875;SDS011;39789;53.216;5.624;2023-10-31T08:47:58;6.68;;;1.65;;
53875;SDS011;39789;53.216;5.624;2023-10-31T08:50:42;7.57;;;1.88;;
53875;SDS011;39789;53.216;5.624;2023-10-31T08:53:07;7.05;;;1.70;;
53875;SDS011;39789;53.216;5.624;2023-10-31T08:55:33;9.50;;;1.70;;
53875;SDS011;39789;53.216;5.624;2023-10-31T08:57:58;2.78;;;1.27;;
53875;SDS011;39789;53.216;5.624;2023-10-31T09:00:25;8.43;;;1.85;;
53875;SDS011;39789;53.216;5.624;2023-10-31T09:02:53;5.57;;;1.77;;
53875;SDS011;39789;53.216;5.624;2023-10-31T09:05:19;9.23;;;1.98;;
53875;SDS011;39789;53.216;5.624;2023-10-31T09:07:44;3.35;;;1.65;;
53875;SDS011;39789;53.216;5.624;2023-10-31T09:10:11;4.78;;;1.50;;
53875;SDS011;39789;53.216;5.624;2023-10-31T09:12:37;3.45;;;1.40;;
53875;SDS011;39789;53.216;5.624;2023-10-31T09:15:03;6.00;;;1.00;;
53875;SDS011;39789;53.216;5.624;2023-10-31T09:17:29;3.65;;;1.13;;
53875;SDS011;39789;53.216;5.624;2023-10-31T09:19:55;4.30;;;1.40;;
53875;SDS011;39789;53.216;5.624;2023-10-31T09:22:21;4.70;;;1.60;;
53875;SDS011;39789;53.216;5.624;2023-10-31T09:24:46;4.80;;;1.30;;
53875;SDS011;39789;53.216;5.624;2023-10-31T09:27:12;5.90;;;1.95;;
53875;SDS011;39789;53.216;5.624;2023-10-31T09:29:37;8.05;;;2.13;;
53875;SDS011;39789;53.216;5.624;2023-10-31T09:32:03;7.25;;;1.70;;
53875;SDS011;39789;53.216;5.624;2023-10-31T09:34:31;5.28;;;1.70;;
53875;SDS011;39789;53.216;5.624;2023-10-31T09:36:57;8.43;;;1.83;;
53875;SDS011;39789;53.216;5.624;2023-10-31T09:39:23;6.13;;;1.63;;
53875;SDS011;39789;53.216;5.624;2023-10-31T09:41:49;6.68;;;2.08;;
53875;SDS011;39789;53.216;5.624;2023-10-31T09:44:14;6.60;;;1.90;;
53875;SDS011;39789;53.216;5.624;2023-10-31T09:46:40;5.18;;;1.80;;
53875;SDS011;39789;53.216;5.624;2023-10-31T09:49:06;4.93;;;1.20;;
53875;SDS011;39789;53.216;5.624;2023-10-31T09:51:33;4.25;;;1.30;;
53875;SDS011;39789;53.216;5.624;2023-10-31T09:53:59;4.28;;;1.40;;
53875;SDS011;39789;53.216;5.624;2023-10-31T09:56:27;5.78;;;1.70;;
53875;SDS011;39789;53.216;5.624;2023-10-31T09:59:00;6.60;;;1.52;;
53875;SDS011;39789;53.216;5.624;2023-10-31T10:01:27;5.25;;;1.55;;
53875;SDS011;39789;53.216;5.624;2023-10-31T10:03:53;5.13;;;1.33;;
53875;SDS011;39789;53.216;5.624;2023-10-31T10:06:20;2.90;;;1.23;;
53875;SDS011;39789;53.216;5.624;2023-10-31T10:08:48;6.40;;;2.08;;
53875;SDS011;39789;53.216;5.624;2023-10-31T10:11:14;4.32;;;1.30;;
53875;SDS011;39789;53.216;5.624;2023-10-31T10:13:40;4.63;;;1.30;;
53875;SDS011;39789;53.216;5.624;2023-10-31T10:16:05;3.95;;;1.58;;
53875;SDS011;39789;53.216;5.624;2023-10-31T10:18:32;5.32;;;1.77;;
53875;SDS011;39789;53.216;5.624;2023-10-31T10:21:02;3.75;;;1.48;;
53875;SDS011;39789;53.216;5.624;2023-10-31T10:23:31;7.22;;;1.55;;
53875;SDS011;39789;53.216;5.624;2023-10-31T10:25:58;6.45;;;2.13;;
53875;SDS011;39789;53.216;5.624;2023-10-31T10:28:24;6.97;;;1.88;;
53875;SDS011;39789;53.216;5.624;2023-10-31T10:30:54;6.30;;;1.85;;
53875;SDS011;39789;53.216;5.624;2023-10-31T10:33:28;5.25;;;1.80;;
53875;SDS011;39789;53.216;5.624;2023-10-31T10:35:54;7.75;;;1.48;;
53875;SDS011;39789;53.216;5.624;2023-10-31T10:38:20;8.13;;;2.08;;
53875;SDS011;39789;53.216;5.624;2023-10-31T10:40:48;7.00;;;1.88;;
53875;SDS011;39789;53.216;5.624;2023-10-31T10:43:24;5.60;;;1.90;;
53875;SDS011;39789;53.216;5.624;2023-10-31T10:45:54;5.75;;;1.73;;
53875;SDS011;39789;53.216;5.624;2023-10-31T10:48:24;7.55;;;1.98;;
53875;SDS011;39789;53.216;5.624;2023-10-31T10:50:59;7.28;;;2.00;;
53875;SDS011;39789;53.216;5.624;2023-10-31T10:53:33;6.10;;;1.98;;
53875;SDS011;39789;53.216;5.624;2023-10-31T10:56:07;7.43;;;2.15;;
53875;SDS011;39789;53.216;5.624;2023-10-31T11:01:13;9.50;;;2.00;;
53875;SDS011;39789;53.216;5.624;2023-10-31T11:03:45;3.65;;;1.58;;
53875;SDS011;39789;53.216;5.624;2023-10-31T11:06:11;5.75;;;1.40;;
53875;SDS011;39789;53.216;5.624;2023-10-31T11:08:39;6.35;;;1.80;;
53875;SDS011;39789;53.216;5.624;2023-10-31T11:11:05;6.57;;;1.73;;
53875;SDS011;39789;53.216;5.624;2023-10-31T11:13:31;5.43;;;1.73;;
53875;SDS011;39789;53.216;5.624;2023-10-31T11:15:59;5.63;;;1.65;;
53875;SDS011;39789;53.216;5.624;2023-10-31T11:18:34;9.02;;;1.95;;
53875;SDS011;39789;53.216;5.624;2023-10-31T11:21:00;4.55;;;1.40;;
53875;SDS011;39789;53.216;5.624;2023-10-31T11:23:27;8.77;;;1.60;;
53875;SDS011;39789;53.216;5.624;2023-10-31T11:25:52;7.55;;;1.70;;
53875;SDS011;39789;53.216;5.624;2023-10-31T11:28:19;5.10;;;1.58;;
53875;SDS011;39789;53.216;5.624;2023-10-31T11:30:48;4.22;;;1.20;;
53875;SDS011;39789;53.216;5.624;2023-10-31T11:33:19;5.07;;;1.70;;
53875;SDS011;39789;53.216;5.624;2023-10-31T11:35:50;5.68;;;1.63;;
53875;SDS011;39789;53.216;5.624;2023-10-31T11:38:16;2.75;;;1.20;;
53875;SDS011;39789;53.216;5.624;2023-10-31T11:43:13;2.88;;;1.00;;
53875;SDS011;39789;53.216;5.624;2023-10-31T11:48:05;4.50;;;1.45;;
53875;SDS011;39789;53.216;5.624;2023-10-31T11:50:31;5.85;;;1.55;;
53875;SDS011;39789;53.216;5.624;2023-10-31T11:53:01;6.80;;;1.30;;
53875;SDS011;39789;53.216;5.624;2023-10-31T11:55:47;6.03;;;1.60;;
53875;SDS011;39789;53.216;5.624;2023-10-31T11:58:23;2.53;;;1.23;;
53875;SDS011;39789;53.216;5.624;2023-10-31T12:00:51;5.70;;;2.10;;
53875;SDS011;39789;53.216;5.624;2023-10-31T12:03:19;4.88;;;2.13;;
53875;SDS011;39789;53.216;5.624;2023-10-31T12:05:55;6.60;;;1.92;;
53875;SDS011;39789;53.216;5.624;2023-10-31T12:08:30;4.88;;;1.83;;
53875;SDS011;39789;53.216;5.624;2023-10-31T12:13:53;6.10;;;1.38;;
53875;SDS011;39789;53.216;5.624;2023-10-31T12:16:22;6.15;;;1.63;;
53875;SDS011;39789;53.216;5.624;2023-10-31T12:19:02;2.78;;;0.80;;
53875;SDS011;39789;53.216;5.624;2023-10-31T12:21:34;3.33;;;1.20;;
53875;SDS011;39789;53.216;5.624;2023-10-31T12:24:08;4.65;;;1.35;;
53875;SDS011;39789;53.216;5.624;2023-10-31T12:26:35;8.13;;;1.13;;
53875;SDS011;39789;53.216;5.624;2023-10-31T12:31:33;3.15;;;1.20;;
53875;SDS011;39789;53.216;5.624;2023-10-31T12:34:05;4.43;;;1.38;;
53875;SDS011;39789;53.216;5.624;2023-10-31T12:36:32;3.22;;;1.25;;
53875;SDS011;39789;53.216;5.624;2023-10-31T12:38:58;2.28;;;1.05;;
53875;SDS011;39789;53.216;5.624;2023-10-31T12:44:04;4.75;;;1.40;;
53875;SDS011;39789;53.216;5.624;2023-10-31T12:46:31;4.97;;;2.78;;
53875;SDS011;39789;53.216;5.624;2023-10-31T12:48:58;3.05;;;1.13;;
53875;SDS011;39789;53.216;5.624;2023-10-31T12:51:24;5.55;;;1.25;;
53875;SDS011;39789;53.216;5.624;2023-10-31T12:53:50;5.63;;;2.78;;
53875;SDS011;39789;53.216;5.624;2023-10-31T12:59:04;5.28;;;3.63;;
53875;SDS011;39789;53.216;5.624;2023-10-31T13:01:35;6.05;;;4.00;;
53875;SDS011;39789;53.216;5.624;2023-10-31T13:04:04;3.35;;;1.90;;
53875;SDS011;39789;53.216;5.624;2023-10-31T13:06:30;4.38;;;1.70;;
53875;SDS011;39789;53.216;5.624;2023-10-31T13:08:56;5.47;;;1.77;;
53875;SDS011;39789;53.216;5.624;2023-10-31T13:11:22;3.25;;;2.30;;
53875;SDS011;39789;53.216;5.624;2023-10-31T13:13:53;4.38;;;1.73;;
53875;SDS011;39789;53.216;5.624;2023-10-31T13:16:19;4.00;;;1.40;;
53875;SDS011;39789;53.216;5.624;2023-10-31T13:18:45;2.67;;;1.00;;
53875;SDS011;39789;53.216;5.624;2023-10-31T13:21:11;4.45;;;1.35;;
53875;SDS011;39789;53.216;5.624;2023-10-31T13:23:39;2.50;;;1.33;;
53875;SDS011;39789;53.216;5.624;2023-10-31T13:26:10;3.33;;;1.13;;
53875;SDS011;39789;53.216;5.624;2023-10-31T13:28:37;3.13;;;1.13;;
53875;SDS011;39789;53.216;5.624;2023-10-31T13:31:04;2.70;;;1.00;;
53875;SDS011;39789;53.216;5.624;2023-10-31T13:33:31;0.98;;;0.70;;
53875;SDS011;39789;53.216;5.624;2023-10-31T13:35:56;4.90;;;0.85;;
53875;SDS011;39789;53.216;5.624;2023-10-31T13:38:22;1.73;;;0.85;;
53875;SDS011;39789;53.216;5.624;2023-10-31T13:40:47;2.70;;;0.85;;
53875;SDS011;39789;53.216;5.624;2023-10-31T13:43:13;1.40;;;0.88;;
53875;SDS011;39789;53.216;5.624;2023-10-31T13:45:38;5.53;;;0.90;;
53875;SDS011;39789;53.216;5.624;2023-10-31T13:48:04;6.10;;;1.17;;
53875;SDS011;39789;53.216;5.624;2023-10-31T13:50:30;3.25;;;0.90;;
53875;SDS011;39789;53.216;5.624;2023-10-31T13:52:56;3.25;;;1.58;;
53875;SDS011;39789;53.216;5.624;2023-10-31T13:55:21;4.68;;;1.20;;
53875;SDS011;39789;53.216;5.624;2023-10-31T13:57:48;3.17;;;1.33;;
53875;SDS011;39789;53.216;5.624;2023-10-31T14:00:14;2.65;;;1.02;;
53875;SDS011;39789;53.216;5.624;2023-10-31T14:02:40;2.55;;;1.00;;
53875;SDS011;39789;53.216;5.624;2023-10-31T14:05:06;2.08;;;0.82;;
53875;SDS011;39789;53.216;5.624;2023-10-31T14:07:32;1.65;;;1.02;;
53875;SDS011;39789;53.216;5.624;2023-10-31T14:09:57;2.90;;;0.98;;
53875;SDS011;39789;53.216;5.624;2023-10-31T14:12:24;2.03;;;1.00;;
53875;SDS011;39789;53.216;5.624;2023-10-31T14:14:50;3.65;;;1.13;;
53875;SDS011;39789;53.216;5.624;2023-10-31T14:17:16;3.35;;;0.85;;
53875;SDS011;39789;53.216;5.624;2023-10-31T14:19:43;2.90;;;0.90;;
53875;SDS011;39789;53.216;5.624;2023-10-31T14:22:09;1.98;;;0.70;;
53875;SDS011;39789;53.216;5.624;2023-10-31T14:24:36;0.90;;;0.55;;
53875;SDS011;39789;53.216;5.624;2023-10-31T14:27:02;2.03;;;0.70;;
53875;SDS011;39789;53.216;5.624;2023-10-31T14:29:28;2.45;;;0.90;;
53875;SDS011;39789;53.216;5.624;2023-10-31T14:31:53;2.65;;;1.27;;
53875;SDS011;39789;53.216;5.624;2023-10-31T14:34:19;2.08;;;0.90;;
53875;SDS011;39789;53.216;5.624;2023-10-31T14:36:46;3.10;;;1.08;;
53875;SDS011;39789;53.216;5.624;2023-10-31T14:39:12;6.88;;;1.30;;
53875;SDS011;39789;53.216;5.624;2023-10-31T14:41:38;1.73;;;0.77;;
53875;SDS011;39789;53.216;5.624;2023-10-31T14:44:04;1.95;;;0.57;;
53875;SDS011;39789;53.216;5.624;2023-10-31T14:46:30;0.88;;;0.50;;
53875;SDS011;39789;53.216;5.624;2023-10-31T14:48:57;1.70;;;0.68;;
53875;SDS011;39789;53.216;5.624;2023-10-31T14:51:22;1.70;;;0.68;;
53875;SDS011;39789;53.216;5.624;2023-10-31T14:53:48;2.30;;;0.70;;
53875;SDS011;39789;53.216;5.624;2023-10-31T14:56:14;1.42;;;0.60;;
53875;SDS011;39789;53.216;5.624;2023-10-31T14:58:40;1.52;;;0.65;;
53875;SDS011;39789;53.216;5.624;2023-10-31T15:01:06;1.60;;;0.50;;